• Join FlightAware (Why Join?)
  • Login
  • US Flag 
02:28PM EDT


 

Airport Tracker/Info


-or-


 

Live Flight TrackerFlight Track Log ✈ UAL4305 ✈ 04-Apr-2013 ✈ KIAH - KDFW

Flight Track Log - Related Links

Times and Time Zones

All times are in EDT time to prevent confusion due to time zone crossing. See the UAL4305 flight status page for this flight to view local times or setup timezone preferences in your user account.

Time Position Orientation Groundspeed Altitude Reporting Facility
EDT Latitude Longitude Course Direction KTS MPH feet Rate Location/Type
10:39PM 29.9619 -95.3458 North 163 188 800  Level Houston Center
10:41PM 29.9997 -95.3814 321° Northwest 210 242 5,700 2,640 Climbing Houston Center
10:42PM 30.0644 -95.3719 North 230 265 8,800 2,640 Climbing Houston Center
10:43PM 30.3272 -95.3070 North  Level FlightAware Approximate
10:43PM 30.1331 -95.3642 North 243 280 11,200  Level Houston Center
10:44PM 30.4133 -95.3000 North  Level FlightAware Approximate
10:44PM 30.2125 -95.3553 North 280 322 12,900  Level Houston Center
10:45PM 30.4997 -95.3000 North  Level FlightAware Approximate
10:45PM 30.3003 -95.3511 North 312 359 14,500  Level Houston Center
10:46PM 30.3842 -95.3914 338° Northwest 321 369 16,500 1,620 Climbing Houston Center
10:47PM 30.4706 -95.4286 340° North 330 380 17,800 1,680 Climbing Houston Center
10:48PM 30.5581 -95.4689 338° Northwest 335 386 20,000 1,980 Climbing Houston Center
10:49PM 30.6444 -95.5069 339° North 332 382 21,900 960 Climbing Houston Center
10:50PM 30.7517 -95.5558 339° North 341 392 22,000  Climbing Houston Center
10:51PM 30.8528 -95.6025 338° Northwest 373 429 22,000  Level Houston Center
10:52PM 30.9556 -95.6489 339° North 388 447 22,000  Level Houston Center
10:53PM 31.0622 -95.6969 339° North 400 460 22,000  Level Houston Center
10:54PM 31.1683 -95.7456 339° North 405 466 22,000  Level Houston Center
10:55PM 31.2044 -95.7594 342° North 397 457 22,000  Level Fort Worth Center
10:56PM 31.3097 -95.8111 337° Northwest 397 457 22,000  Level Fort Worth Center
10:57PM 31.4061 -95.8531 340° North 404 465 22,000  Level Fort Worth Center
10:58PM 31.5111 -95.9025 338° Northwest 404 465 22,000 -360 Level Fort Worth Center
10:59PM 31.6142 -95.9497 339° North 395 455 21,300 -900 Descending Fort Worth Center
11:00PM 31.7106 -95.9969 337° Northwest 384 442 20,200 -1,260 Descending Fort Worth Center
11:01PM 31.8072 -96.0419 338° Northwest 378 435 18,800 -1,320 Descending Fort Worth Center
11:02PM 31.9036 -96.0869 338° Northwest 378 435 17,600 -1,440 Descending Fort Worth Center
11:03PM 31.9958 -96.1297 339° North 346 398 16,000 -1,740 Descending Fort Worth Center
11:04PM 32.0797 -96.1678 339° North 325 374 14,200 -1,860 Descending Fort Worth Center
11:05PM 32.1617 -96.2083 337° Northwest 310 357 12,300 -1,440 Descending Fort Worth Center
11:06PM 32.2353 -96.2739 323° Northwest 310 357 11,400 -660 Descending Fort Worth Center
11:07PM 32.2922 -96.3467 313° West 335 386 11,000 -240 Descending Fort Worth Center
11:08PM 32.3661 -96.4344 315° West 335 386 11,000  Level Fort Worth Center
11:09PM 32.4231 -96.5003 316° Northwest 335 386 11,000 -600 Level Fort Worth Center
11:10PM 32.4778 -96.5833 308° West 306 352 9,900 -1,440 Descending Fort Worth Center
11:11PM 32.5158 -96.6472 305° West 273 314 8,200 -1,800 Descending Fort Worth Center
11:12PM 32.5622 -96.7208 307° West 265 305 6,300 -1,560 Descending Fort Worth Center
11:13PM 32.6000 -96.7797 307° West 260 299 5,100 -1,200 Descending Fort Worth Center
11:14PM 32.6464 -96.8558 306° West 260 299 4,000 -960 Descending Fort Worth Center
11:15PM 32.6800 -96.9122 305° West 253 291 3,200 -540 Descending Fort Worth Center
11:16PM 32.7178 -96.9764 305° West 236 272 3,000 -240 Descending Fort Worth Center